createdAt,value
2018-02-27T00:00:40.353Z,0
2018-02-27T00:01:50.291Z,0
2018-02-27T00:03:00.221Z,0
2018-02-27T00:04:10.072Z,0
2018-02-27T00:05:20.235Z,0
2018-02-27T00:06:30.410Z,0
2018-02-27T00:07:40.515Z,0
2018-02-27T00:08:50.143Z,0
2018-02-27T00:10:00.112Z,0
2018-02-27T00:11:10.224Z,0
2018-02-27T00:12:20.368Z,0
2018-02-27T00:13:30.267Z,0
2018-02-27T00:14:40.401Z,0
2018-02-27T00:15:50.277Z,0
2018-02-27T00:17:00.632Z,0
2018-02-27T00:18:10.781Z,0
2018-02-27T00:19:20.447Z,0
2018-02-27T00:20:30.590Z,0
2018-02-27T00:21:40.728Z,0
2018-02-27T00:22:50.611Z,0
2018-02-27T00:24:00.731Z,0
2018-02-27T00:25:10.349Z,0
2018-02-27T00:26:20.557Z,0
2018-02-27T00:27:30.790Z,0
2018-02-27T00:28:41.013Z,0
2018-02-27T00:29:51.131Z,0
2018-02-27T00:31:01.117Z,0
2018-02-27T00:32:11.373Z,0
2018-02-27T00:33:21.159Z,0
2018-02-27T00:34:31.278Z,0
2018-02-27T00:35:41.516Z,0
2018-02-27T00:36:51.405Z,0
2018-02-27T00:38:01.520Z,0
2018-02-27T00:39:11.125Z,0
2018-02-27T00:40:21.348Z,0
2018-02-27T00:41:31.580Z,0
2018-02-27T00:42:41.462Z,0
2018-02-27T00:43:51.647Z,0
2018-02-27T00:45:01.424Z,0
2018-02-27T00:46:11.914Z,0
2018-02-27T00:47:22.078Z,0
2018-02-27T00:48:32.382Z,0
2018-02-27T00:49:42.632Z,0
2018-02-27T00:50:52.544Z,0
2018-02-27T00:52:02.662Z,0
2018-02-27T00:53:12.382Z,0
2018-02-27T00:54:22.541Z,0
2018-02-27T00:55:32.672Z,0
2018-02-27T00:56:42.552Z,0
2018-02-27T00:57:52.452Z,0
2018-02-27T00:59:02.438Z,0
2018-02-27T01:00:12.310Z,0
2018-02-27T01:01:22.191Z,0
2018-02-27T01:02:32.308Z,0
2018-02-27T01:03:42.538Z,0
2018-02-27T01:04:52.648Z,0
2018-02-27T01:06:02.723Z,0
2018-02-27T01:07:12.841Z,0
2018-02-27T01:08:22.958Z,0
2018-02-27T01:09:33.093Z,0
2018-02-27T01:10:43.224Z,0
2018-02-27T01:11:53.723Z,0
2018-02-27T01:13:04.069Z,0
2018-02-27T01:14:14.397Z,0
2018-02-27T01:15:24.909Z,0
2018-02-27T01:16:35.017Z,0
2018-02-27T01:17:45.159Z,0
2018-02-27T01:18:55.337Z,0
2018-02-27T01:20:05.535Z,0
2018-02-27T01:21:15.688Z,0
2018-02-27T01:22:25.901Z,0
2018-02-27T01:23:36.097Z,0
2018-02-27T01:24:46.445Z,0
2018-02-27T01:25:56.849Z,0
2018-02-27T01:27:06.793Z,0
2018-02-27T01:28:16.966Z,0
2018-02-27T01:29:27.272Z,0
2018-02-27T01:30:37.539Z,0
2018-02-27T01:31:47.676Z,0
2018-02-27T01:32:57.916Z,0
2018-02-27T01:34:08.100Z,0
2018-02-27T01:35:18.292Z,0
2018-02-27T01:36:28.134Z,0
2018-02-27T01:37:38.006Z,0
2018-02-27T01:38:48.124Z,0
2018-02-27T01:39:58.261Z,0
2018-02-27T01:41:08.523Z,0
2018-02-27T01:42:18.745Z,0
2018-02-27T01:43:28.942Z,0
2018-02-27T01:44:39.092Z,0
2018-02-27T01:45:49.441Z,0
2018-02-27T01:46:59.676Z,0
2018-02-27T01:48:09.801Z,0
2018-02-27T01:49:19.998Z,0
2018-02-27T01:50:30.180Z,0
2018-02-27T01:51:39.779Z,0
2018-02-27T01:52:49.956Z,0
2018-02-27T01:53:59.990Z,0
2018-02-27T01:55:10.175Z,0
2018-02-27T01:56:20.162Z,0
2018-02-27T01:57:30.295Z,0
2018-02-27T01:58:40.381Z,0
2018-02-27T01:59:50.141Z,0
2018-02-27T02:01:00.272Z,0
2018-02-27T02:02:10.228Z,0
2018-02-27T02:03:19.835Z,0
2018-02-27T02:04:30.062Z,0
2018-02-27T02:05:39.554Z,0
2018-02-27T02:06:49.666Z,0
2018-02-27T02:07:59.597Z,0
2018-02-27T02:09:09.791Z,0
2018-02-27T02:10:19.689Z,0
2018-02-27T02:11:29.937Z,0
2018-02-27T02:12:40.319Z,0
2018-02-27T02:13:50.451Z,0
2018-02-27T02:15:00.044Z,0
2018-02-27T02:16:10.322Z,0
2018-02-27T02:17:20.186Z,0
2018-02-27T02:18:30.350Z,0
2018-02-27T02:19:40.212Z,0
2018-02-27T02:20:49.974Z,0
2018-02-27T02:22:00.088Z,0
2018-02-27T02:23:09.599Z,0
2018-02-27T02:24:19.929Z,0
2018-02-27T02:25:30.092Z,0
2018-02-27T02:26:40.314Z,0
2018-02-27T02:27:50.529Z,0
2018-02-27T02:29:00.070Z,0
2018-02-27T02:30:09.894Z,0
2018-02-27T02:31:20.010Z,0
2018-02-27T02:32:30.133Z,0
2018-02-27T02:33:40.286Z,0
2018-02-27T02:34:50.428Z,0
2018-02-27T02:36:00.065Z,0
2018-02-27T02:37:09.684Z,0
2018-02-27T02:38:19.420Z,0
2018-02-27T02:39:29.519Z,0
2018-02-27T02:40:39.627Z,0
2018-02-27T02:41:49.784Z,0
2018-02-27T02:42:59.917Z,0
2018-02-27T02:44:09.762Z,0
2018-02-27T02:45:19.959Z,0
2018-02-27T02:46:30.399Z,0
2018-02-27T02:47:40.607Z,0
2018-02-27T02:48:50.764Z,0
2018-02-27T02:50:00.656Z,0
2018-02-27T02:51:10.827Z,0
2018-02-27T02:52:20.926Z,0
2018-02-27T02:53:31.050Z,0
2018-02-27T02:54:41.214Z,0
2018-02-27T02:55:51.340Z,0
2018-02-27T02:57:01.023Z,0
2018-02-27T02:58:10.887Z,0
2018-02-27T02:59:21.263Z,0
2018-02-27T03:00:31.381Z,0
2018-02-27T03:01:41.255Z,0
2018-02-27T03:02:50.859Z,0
2018-02-27T03:04:00.783Z,0
2018-02-27T03:05:10.928Z,0
2018-02-27T03:06:20.789Z,0
2018-02-27T03:07:30.278Z,0
2018-02-27T03:08:39.902Z,0
2018-02-27T03:09:49.691Z,0
2018-02-27T03:10:59.956Z,0
2018-02-27T03:12:09.793Z,0
2018-02-27T03:13:20.777Z,0
2018-02-27T03:14:30.933Z,0
2018-02-27T03:15:41.041Z,0
2018-02-27T03:16:51.006Z,0
2018-02-27T03:18:00.329Z,0
2018-02-27T03:19:09.935Z,0
2018-02-27T03:20:20.296Z,0
2018-02-27T03:21:30.557Z,0
2018-02-27T03:22:40.431Z,0
2018-02-27T03:23:50.273Z,0
2018-02-27T03:25:00.374Z,0
2018-02-27T03:26:10.566Z,0
2018-02-27T03:27:20.739Z,0
2018-02-27T03:28:30.508Z,0
2018-02-27T03:29:40.599Z,0
2018-02-27T03:30:50.837Z,0
2018-02-27T03:32:01.101Z,0
2018-02-27T03:33:11.253Z,0
2018-02-27T03:34:22.194Z,0
2018-02-27T03:35:32.934Z,0
2018-02-27T03:36:44.249Z,0
2018-02-27T03:37:54.370Z,0
2018-02-27T03:39:04.262Z,0
2018-02-27T03:40:14.439Z,0
2018-02-27T03:41:24.546Z,0
2018-02-27T03:42:34.443Z,0
2018-02-27T03:43:44.695Z,0
2018-02-27T03:44:55.322Z,0
2018-02-27T03:46:05.640Z,0
2018-02-27T03:47:15.888Z,0
2018-02-27T03:48:25.766Z,0
2018-02-27T03:49:35.980Z,0
2018-02-27T03:50:46.080Z,0
2018-02-27T03:51:56.439Z,0
2018-02-27T03:53:06.747Z,0
2018-02-27T03:54:16.638Z,0
2018-02-27T03:55:26.763Z,0
2018-02-27T03:56:37.494Z,0
2018-02-27T03:57:47.579Z,0
2018-02-27T03:58:57.439Z,0
2018-02-27T04:00:07.566Z,0
2018-02-27T04:01:17.705Z,0
2018-02-27T04:02:28.637Z,0
2018-02-27T04:03:39.349Z,0
2018-02-27T04:04:49.876Z,0
2018-02-27T04:06:00.040Z,0
2018-02-27T04:07:10.233Z,0
2018-02-27T04:08:20.435Z,0
2018-02-27T04:09:30.706Z,0
2018-02-27T04:10:41.033Z,0
2018-02-27T04:11:51.143Z,0
2018-02-27T04:13:01.074Z,0
2018-02-27T04:14:11.176Z,0
2018-02-27T04:15:21.040Z,0
2018-02-27T04:16:31.146Z,0
2018-02-27T04:17:41.368Z,0
2018-02-27T04:18:50.890Z,0
2018-02-27T04:20:01.428Z,0
2018-02-27T04:21:11.293Z,0
2018-02-27T04:22:20.873Z,0
2018-02-27T04:23:31.260Z,0
2018-02-27T04:24:41.537Z,0
2018-02-27T04:25:51.939Z,0
2018-02-27T04:27:02.072Z,0
2018-02-27T04:28:11.957Z,0
2018-02-27T04:29:22.075Z,0
2018-02-27T04:30:32.792Z,0
2018-02-27T04:31:42.559Z,0
2018-02-27T04:32:52.618Z,0
2018-02-27T04:34:02.969Z,0
2018-02-27T04:35:13.084Z,0
2018-02-27T04:36:23.031Z,0
2018-02-27T04:37:33.162Z,0
2018-02-27T04:38:43.091Z,0
2018-02-27T04:39:53.225Z,0
2018-02-27T04:41:03.359Z,0
2018-02-27T04:42:13.711Z,0
2018-02-27T04:43:23.863Z,0
2018-02-27T04:44:33.604Z,0
2018-02-27T04:45:43.463Z,0
2018-02-27T04:46:53.611Z,0
2018-02-27T04:48:03.488Z,0
2018-02-27T04:49:13.825Z,0
2018-02-27T04:50:23.759Z,0
2018-02-27T04:51:33.872Z,0
2018-02-27T04:52:43.730Z,0
2018-02-27T04:53:53.839Z,0
2018-02-27T04:55:03.953Z,0
2018-02-27T04:56:14.791Z,0
2018-02-27T04:57:24.901Z,0
2018-02-27T04:58:34.765Z,0
2018-02-27T04:59:44.930Z,0
2018-02-27T05:00:55.041Z,0
2018-02-27T05:02:04.883Z,0
2018-02-27T05:03:14.900Z,0
2018-02-27T05:04:25.122Z,0
2018-02-27T05:05:34.998Z,0
2018-02-27T05:06:45.161Z,0
2018-02-27T05:07:55.388Z,0
2018-02-27T05:09:05.342Z,0
2018-02-27T05:10:15.277Z,0
2018-02-27T05:11:25.100Z,0
2018-02-27T05:12:35.253Z,0
2018-02-27T05:13:45.161Z,0
2018-02-27T05:14:55.287Z,0
2018-02-27T05:16:05.405Z,0
2018-02-27T05:17:15.532Z,0
2018-02-27T05:18:25.713Z,0
2018-02-27T05:19:35.600Z,0
2018-02-27T05:20:45.760Z,0
2018-02-27T05:21:55.913Z,0
2018-02-27T05:23:05.781Z,0
2018-02-27T05:24:15.674Z,0
2018-02-27T05:25:25.494Z,0
2018-02-27T05:26:35.627Z,0
2018-02-27T05:27:45.508Z,0
2018-02-27T05:28:55.632Z,0
2018-02-27T05:30:05.756Z,0
2018-02-27T05:31:16.049Z,0
2018-02-27T05:32:25.625Z,4
2018-02-27T05:33:35.475Z,4
2018-02-27T05:34:45.744Z,0
2018-02-27T05:35:55.944Z,4
2018-02-27T05:37:06.064Z,0
2018-02-27T05:38:15.967Z,4
2018-02-27T05:39:25.835Z,4
2018-02-27T05:40:36.029Z,4
2018-02-27T05:41:46.201Z,8
2018-02-27T05:42:56.351Z,12
2018-02-27T05:44:06.258Z,12
2018-02-27T05:45:16.403Z,12
2018-02-27T05:46:26.544Z,16
2018-02-27T05:47:36.688Z,20
2018-02-27T05:48:46.853Z,24
2018-02-27T05:49:57.041Z,28
2018-02-27T05:51:07.206Z,36
2018-02-27T05:52:17.174Z,40
2018-02-27T05:53:27.282Z,48
2018-02-27T05:54:37.449Z,56
2018-02-27T05:55:46.726Z,64
2018-02-27T05:56:56.942Z,76
2018-02-27T05:58:07.067Z,88
2018-02-27T05:59:16.945Z,104
2018-02-27T06:00:27.146Z,116
2018-02-27T06:01:37.275Z,136
2018-02-27T06:02:46.955Z,152
2018-02-27T06:03:57.321Z,172
2018-02-27T06:05:07.489Z,196
2018-02-27T06:06:17.406Z,220
2018-02-27T06:07:27.659Z,244
2018-02-27T06:08:37.592Z,268
2018-02-27T06:09:47.716Z,300
2018-02-27T06:10:57.878Z,332
2018-02-27T06:12:07.556Z,368
2018-02-27T06:13:17.674Z,400
2018-02-27T06:14:27.892Z,440
2018-02-27T06:15:38.070Z,472
2018-02-27T06:16:48.270Z,508
2018-02-27T06:17:58.569Z,548
2018-02-27T06:19:09.655Z,584
2018-02-27T06:20:19.792Z,620
2018-02-27T06:21:29.653Z,648
2018-02-27T06:22:39.872Z,684
2018-02-27T06:23:50.152Z,728
2018-02-27T06:25:00.123Z,780
2018-02-27T06:26:10.225Z,844
2018-02-27T06:27:20.358Z,916
2018-02-27T06:28:30.528Z,984
2018-02-27T06:29:40.672Z,1036
2018-02-27T06:30:51.022Z,1096
2018-02-27T06:32:00.804Z,1156
2018-02-27T06:33:10.993Z,1216
2018-02-27T06:34:21.160Z,1256
2018-02-27T06:35:31.021Z,1284
2018-02-27T06:36:40.674Z,1300
2018-02-27T06:37:50.577Z,1340
2018-02-27T06:39:00.495Z,1364
2018-02-27T06:40:10.366Z,1392
2018-02-27T06:41:20.229Z,1404
2018-02-27T06:42:30.374Z,1420
2018-02-27T06:43:40.493Z,1456
2018-02-27T06:44:50.716Z,1524
2018-02-27T06:46:00.920Z,1612
2018-02-27T06:47:10.976Z,1708
2018-02-27T06:48:21.239Z,1820
2018-02-27T06:49:31.716Z,1936
2018-02-27T06:50:43.468Z,2028
2018-02-27T06:51:54.659Z,2104
2018-02-27T06:53:04.692Z,2188
2018-02-27T06:54:15.562Z,2260
2018-02-27T06:55:25.716Z,2312
2018-02-27T06:56:35.914Z,2344
2018-02-27T06:57:45.694Z,2392
2018-02-27T06:58:56.115Z,2464
2018-02-27T07:00:06.581Z,2600
2018-02-27T07:01:18.008Z,2756
2018-02-27T07:02:29.851Z,2900
2018-02-27T07:03:41.868Z,3048
2018-02-27T07:04:53.845Z,3120
2018-02-27T07:06:04.124Z,3160
2018-02-27T07:07:15.124Z,3232
2018-02-27T07:08:25.938Z,3344
2018-02-27T07:09:37.530Z,3488
2018-02-27T07:10:48.355Z,3824
2018-02-27T07:11:59.110Z,3988
2018-02-27T07:13:11.140Z,4000
2018-02-27T07:14:21.520Z,4048
2018-02-27T07:15:31.649Z,4108
2018-02-27T07:16:42.680Z,4204
2018-02-27T07:17:53.228Z,4380
2018-02-27T07:19:03.034Z,4592
2018-02-27T07:20:13.572Z,4736
2018-02-27T07:21:24.357Z,4748
2018-02-27T07:22:34.856Z,4936
2018-02-27T07:23:45.689Z,4344
2018-02-27T07:24:56.787Z,4908
2018-02-27T07:26:07.156Z,4520
2018-02-27T07:27:18.939Z,4600
2018-02-27T07:28:29.510Z,4588
2018-02-27T07:29:40.469Z,4944
2018-02-27T07:30:50.367Z,5676
2018-02-27T07:32:00.547Z,5772
2018-02-27T07:33:10.769Z,5064
2018-02-27T07:34:21.613Z,5404
2018-02-27T07:35:33.235Z,6892
2018-02-27T07:36:43.132Z,6392
2018-02-27T07:37:53.647Z,5828
2018-02-27T07:39:04.754Z,7652
2018-02-27T07:40:15.346Z,8104
2018-02-27T07:41:25.498Z,5668
2018-02-27T07:42:37.159Z,10388
2018-02-27T07:43:48.571Z,10236
2018-02-27T07:44:58.930Z,10256
2018-02-27T07:46:09.138Z,11464
2018-02-27T07:47:19.665Z,11396
2018-02-27T07:48:30.428Z,14560
2018-02-27T07:49:40.646Z,12608
2018-02-27T07:50:50.621Z,11172
2018-02-27T07:52:00.244Z,11700
2018-02-27T07:53:10.167Z,10816
2018-02-27T07:54:19.985Z,9412
2018-02-27T07:55:30.117Z,8028
2018-02-27T07:56:40.022Z,7596
2018-02-27T07:57:50.556Z,7188
2018-02-27T07:59:00.716Z,6904
2018-02-27T08:00:10.328Z,6780
2018-02-27T08:01:20.709Z,6712
2018-02-27T08:02:30.851Z,6720
2018-02-27T08:03:40.510Z,6744
2018-02-27T08:04:50.676Z,6728
2018-02-27T08:06:00.827Z,6880
2018-02-27T08:07:11.023Z,7036
2018-02-27T08:08:21.414Z,7036
2018-02-27T08:09:31.557Z,6916
2018-02-27T08:10:41.801Z,6800
2018-02-27T08:11:51.988Z,6664
2018-02-27T08:13:02.488Z,6504
2018-02-27T08:14:12.701Z,6472
2018-02-27T08:15:22.823Z,6652
2018-02-27T08:16:32.605Z,6832
2018-02-27T08:17:42.779Z,6996
2018-02-27T08:18:52.947Z,7272
2018-02-27T08:20:03.353Z,7580
2018-02-27T08:21:13.811Z,7848
2018-02-27T08:22:23.672Z,7936
2018-02-27T08:23:33.587Z,8076
2018-02-27T08:24:43.832Z,8268
2018-02-27T08:25:53.714Z,8500
2018-02-27T08:27:03.602Z,8492
2018-02-27T08:28:13.696Z,8520
2018-02-27T08:29:23.858Z,8580
2018-02-27T08:30:34.205Z,8652
2018-02-27T08:31:44.229Z,8756
2018-02-27T08:32:54.441Z,8768
2018-02-27T08:34:04.066Z,9008
2018-02-27T08:35:14.212Z,9464
2018-02-27T08:36:24.363Z,9864
2018-02-27T08:37:33.969Z,10552
2018-02-27T08:38:44.190Z,11384
2018-02-27T08:39:54.390Z,12140
2018-02-27T08:41:04.636Z,11948
2018-02-27T08:42:14.805Z,12364
2018-02-27T08:43:24.686Z,15904
2018-02-27T08:44:34.822Z,20320
2018-02-27T08:45:45.013Z,15360
2018-02-27T08:46:55.242Z,17056
2018-02-27T08:48:05.398Z,23328
2018-02-27T08:49:15.600Z,24768
2018-02-27T08:50:25.757Z,21600
2018-02-27T08:51:35.929Z,22496
2018-02-27T08:52:45.806Z,18528
2018-02-27T08:53:56.096Z,19776
2018-02-27T08:55:06.323Z,24000
2018-02-27T08:56:16.755Z,25920
2018-02-27T08:57:26.927Z,21568
2018-02-27T08:58:37.083Z,18752
2018-02-27T08:59:47.231Z,14272
2018-02-27T09:00:57.173Z,13468
2018-02-27T09:02:07.302Z,15936
2018-02-27T09:03:17.481Z,18432
2018-02-27T09:04:27.634Z,19168
2018-02-27T09:05:37.428Z,19392
2018-02-27T09:06:47.591Z,21056
2018-02-27T09:07:57.580Z,24960
2018-02-27T09:09:07.157Z,27584
2018-02-27T09:10:17.066Z,27712
2018-02-27T09:11:26.883Z,27488
2018-02-27T09:12:37.159Z,25152
2018-02-27T09:13:47.074Z,24480
2018-02-27T09:14:57.873Z,32192
2018-02-27T09:16:08.310Z,30912
2018-02-27T09:17:18.292Z,31008
2018-02-27T09:18:28.162Z,32864
2018-02-27T09:19:38.401Z,33664
2018-02-27T09:20:48.531Z,35616
2018-02-27T09:21:58.438Z,33952
2018-02-27T09:23:08.304Z,36128
2018-02-27T09:24:18.479Z,36384
2018-02-27T09:25:28.403Z,21568
2018-02-27T09:26:38.202Z,45600
2018-02-27T09:27:48.118Z,45920
2018-02-27T09:30:14.846Z,40864
2018-02-27T09:31:25.191Z,44896
2018-02-27T09:32:35.379Z,43968
2018-02-27T09:33:45.572Z,42112
2018-02-27T09:34:55.804Z,30240
2018-02-27T09:36:06.094Z,44672
2018-02-27T09:37:16.137Z,34208
2018-02-27T09:38:26.468Z,44608
2018-02-27T09:39:36.105Z,45632
2018-02-27T09:40:45.698Z,44608
2018-02-27T09:41:55.617Z,45280
2018-02-27T09:43:05.837Z,39424
2018-02-27T09:44:16.053Z,38912
2018-02-27T09:45:26.202Z,39360
2018-02-27T09:46:36.370Z,29984
2018-02-27T09:47:46.337Z,27648
2018-02-27T09:48:56.524Z,22624
2018-02-27T09:50:06.492Z,22688
2018-02-27T09:51:16.666Z,18560
2018-02-27T09:52:27.186Z,18624
2018-02-27T09:53:37.410Z,16992
2018-02-27T09:54:47.700Z,25536
2018-02-27T09:55:57.494Z,40704
2018-02-27T09:57:07.913Z,40768
2018-02-27T09:58:18.314Z,32672
2018-02-27T09:59:29.271Z,45696
2018-02-27T10:00:39.660Z,44032
2018-02-27T10:01:50.359Z,33312
2018-02-27T10:03:00.771Z,48512
2018-02-27T10:04:11.930Z,39392
2018-02-27T10:05:22.118Z,44384
2018-02-27T10:06:31.655Z,46240
2018-02-27T10:07:42.317Z,55040
2018-02-27T10:08:51.630Z,53696
2018-02-27T10:10:02.296Z,52224
2018-02-27T10:11:13.058Z,53856
2018-02-27T10:12:22.842Z,51904
2018-02-27T10:13:33.046Z,38976
2018-02-27T10:14:43.093Z,43232
2018-02-27T10:15:53.183Z,48512
2018-02-27T10:17:03.326Z,40960
2018-02-27T10:18:13.706Z,41632
2018-02-27T10:19:23.967Z,41984
2018-02-27T10:20:34.106Z,36096
2018-02-27T10:22:59.358Z,27392
2018-02-27T10:24:10.658Z,22048
2018-02-27T10:25:21.408Z,27136
2018-02-27T10:27:48.697Z,26880
2018-02-27T10:30:17.431Z,42912
2018-02-27T10:31:29.676Z,48704
2018-02-27T10:32:39.998Z,36512
2018-02-27T10:33:52.181Z,33824
2018-02-27T10:35:02.630Z,30496
2018-02-27T10:36:14.738Z,37376
2018-02-27T10:37:29.987Z,31712
2018-02-27T10:38:40.153Z,26368
2018-02-27T10:39:51.558Z,40352
2018-02-27T10:42:17.917Z,48224
2018-02-27T10:43:28.288Z,67904
2018-02-27T10:44:38.522Z,62336
2018-02-27T10:45:48.686Z,47840
2018-02-27T10:46:59.126Z,45312
2018-02-27T10:48:09.099Z,59776
2018-02-27T10:49:19.565Z,53088
2018-02-27T10:50:30.015Z,47104
2018-02-27T10:51:40.256Z,50272
2018-02-27T10:52:50.660Z,46912
2018-02-27T10:54:00.598Z,46144
2018-02-27T10:55:10.519Z,59456
2018-02-27T10:56:20.709Z,56160
2018-02-27T10:57:30.878Z,56384
2018-02-27T10:58:41.058Z,43872
2018-02-27T10:59:50.945Z,33824
2018-02-27T11:01:01.154Z,51936
2018-02-27T11:02:11.297Z,50848
2018-02-27T11:03:20.582Z,56384
2018-02-27T11:04:31.014Z,59520
2018-02-27T11:05:41.255Z,54080
2018-02-27T11:06:51.608Z,52448
2018-02-27T11:08:01.826Z,45568
2018-02-27T11:09:11.744Z,33664
2018-02-27T11:10:21.896Z,25440
2018-02-27T11:11:32.628Z,31744
2018-02-27T11:12:43.748Z,34176
2018-02-27T11:13:54.185Z,44832
2018-02-27T11:15:04.231Z,42176
2018-02-27T11:16:14.523Z,38560
2018-02-27T11:17:25.143Z,38016
2018-02-27T11:18:35.344Z,41664
2018-02-27T11:19:46.205Z,50912
2018-02-27T11:20:56.378Z,44288
2018-02-27T11:22:07.002Z,41728
2018-02-27T11:23:17.677Z,41696
2018-02-27T11:24:27.890Z,37056
2018-02-27T11:25:38.116Z,31040
2018-02-27T11:26:48.755Z,32544
2018-02-27T11:28:00.012Z,37440
2018-02-27T11:29:10.510Z,42528
2018-02-27T11:30:21.265Z,36768
2018-02-27T11:31:31.745Z,46560
2018-02-27T11:32:42.622Z,57632
2018-02-27T11:33:52.967Z,54240
2018-02-27T11:35:03.270Z,56672
2018-02-27T11:36:16.457Z,58432
2018-02-27T11:37:27.482Z,47904
2018-02-27T11:38:38.374Z,58496
2018-02-27T11:39:48.948Z,63040
2018-02-27T11:40:59.374Z,52032
2018-02-27T11:42:09.060Z,57408
2018-02-27T11:43:18.985Z,56192
2018-02-27T11:44:28.773Z,50432
2018-02-27T11:45:39.365Z,46688
2018-02-27T11:46:49.753Z,46848
2018-02-27T11:47:59.828Z,42176
2018-02-27T11:49:09.835Z,38432
2018-02-27T11:50:19.927Z,40416
2018-02-27T11:51:30.807Z,50912
2018-02-27T11:52:40.732Z,58848
2018-02-27T11:53:51.065Z,47936
2018-02-27T11:55:01.620Z,48768
2018-02-27T11:56:12.010Z,61856
2018-02-27T11:57:21.925Z,66912
2018-02-27T11:58:35.755Z,56960
2018-02-27T12:01:02.883Z,47456
2018-02-27T12:02:17.531Z,60128
2018-02-27T12:03:31.781Z,52736
2018-02-27T12:04:42.766Z,55840
2018-02-27T12:05:52.458Z,57888
2018-02-27T12:07:03.304Z,51104
2018-02-27T12:09:26.873Z,51904
2018-02-27T12:10:36.838Z,52672
2018-02-27T12:11:47.098Z,50624
2018-02-27T12:12:57.289Z,48960
2018-02-27T12:14:08.360Z,44448
2018-02-27T12:15:22.071Z,62592
2018-02-27T12:16:40.280Z,53216
2018-02-27T12:17:50.928Z,55104
2018-02-27T12:19:01.038Z,43328
2018-02-27T12:21:26.456Z,44224
2018-02-27T12:22:36.423Z,45472
2018-02-27T12:23:45.959Z,44736
2018-02-27T12:24:56.352Z,55552
2018-02-27T12:26:06.856Z,52640
2018-02-27T12:27:17.297Z,48576
2018-02-27T12:28:27.213Z,52448
2018-02-27T12:29:37.631Z,58528
2018-02-27T12:30:47.822Z,49664
2018-02-27T12:31:57.944Z,56192
2018-02-27T12:33:08.608Z,68032
2018-02-27T12:34:19.212Z,63488
2018-02-27T12:35:29.572Z,60512
2018-02-27T12:36:39.703Z,58976
2018-02-27T12:37:49.696Z,53184
2018-02-27T12:38:59.928Z,58208
2018-02-27T12:40:10.444Z,56768
2018-02-27T12:41:23.707Z,52480
2018-02-27T12:42:33.828Z,61600
2018-02-27T12:43:44.025Z,66336
2018-02-27T12:44:54.844Z,62784
2018-02-27T12:46:05.279Z,57216
2018-02-27T12:47:14.940Z,54272
2018-02-27T12:48:24.750Z,54592
2018-02-27T12:49:35.410Z,51616
2018-02-27T12:50:45.529Z,54112
2018-02-27T12:51:55.682Z,53568
2018-02-27T12:53:06.542Z,49888
2018-02-27T12:54:16.903Z,51200
2018-02-27T12:55:27.862Z,47264
2018-02-27T12:56:38.325Z,48992
2018-02-27T12:57:48.612Z,61376
2018-02-27T12:58:59.051Z,61632
2018-02-27T13:00:09.211Z,57600
2018-02-27T13:01:18.735Z,52992
2018-02-27T13:02:29.400Z,48224
2018-02-27T13:03:39.986Z,54560
2018-02-27T13:04:50.420Z,53728
2018-02-27T13:06:00.870Z,44416
2018-02-27T13:07:11.286Z,42560
2018-02-27T13:08:21.576Z,53728
2018-02-27T13:09:31.810Z,58112
2018-02-27T13:10:42.381Z,51232
2018-02-27T13:11:56.056Z,54144
2018-02-27T13:13:06.296Z,56224
2018-02-27T13:14:16.175Z,47680
2018-02-27T13:15:25.932Z,48640
2018-02-27T13:16:36.419Z,41696
2018-02-27T13:17:46.820Z,45760
2018-02-27T13:18:57.036Z,43872
2018-02-27T13:20:07.225Z,45632
2018-02-27T13:21:18.355Z,37568
2018-02-27T13:22:28.946Z,40800
2018-02-27T13:23:39.287Z,40768
2018-02-27T13:24:49.746Z,40224
2018-02-27T13:25:59.817Z,39968
2018-02-27T13:27:10.276Z,32384
2018-02-27T13:28:21.881Z,31840
2018-02-27T13:29:32.368Z,27392
2018-02-27T13:30:42.863Z,27584
2018-02-27T13:31:53.936Z,27648
2018-02-27T13:33:04.763Z,35200
2018-02-27T13:34:15.361Z,41056
2018-02-27T13:35:26.186Z,43392
2018-02-27T13:36:36.823Z,39328
2018-02-27T13:37:47.276Z,38208
2018-02-27T13:38:57.973Z,45184
2018-02-27T13:40:08.395Z,40000
2018-02-27T13:41:19.062Z,42976
2018-02-27T13:42:29.497Z,48992
2018-02-27T13:43:39.501Z,40576
2018-02-27T13:44:49.711Z,39936
2018-02-27T13:45:59.914Z,43968
2018-02-27T13:47:10.124Z,44896
2018-02-27T13:48:20.063Z,41184
2018-02-27T13:49:32.992Z,35904
2018-02-27T13:50:43.180Z,37600
2018-02-27T13:51:53.713Z,41760
2018-02-27T13:53:04.108Z,41696
2018-02-27T13:54:14.116Z,38464
2018-02-27T13:55:24.361Z,37344
2018-02-27T13:56:35.209Z,36608
2018-02-27T13:57:45.264Z,38464
2018-02-27T13:58:56.048Z,40576
2018-02-27T14:00:06.287Z,39872
2018-02-27T14:01:16.295Z,42848
2018-02-27T14:02:26.450Z,46560
2018-02-27T14:03:37.522Z,42624
2018-02-27T14:04:47.776Z,40672
2018-02-27T14:05:58.063Z,40704
2018-02-27T14:07:08.266Z,37088
2018-02-27T14:08:18.926Z,38944
2018-02-27T14:09:29.355Z,34464
2018-02-27T14:10:39.771Z,37472
2018-02-27T14:11:50.173Z,37984
2018-02-27T14:13:00.589Z,38816
2018-02-27T14:14:10.812Z,42304
2018-02-27T14:15:21.045Z,33984
2018-02-27T14:16:31.010Z,34336
2018-02-27T14:17:40.733Z,38816
2018-02-27T14:18:51.905Z,35872
2018-02-27T14:20:02.320Z,40320
2018-02-27T14:21:12.733Z,39968
2018-02-27T14:22:23.056Z,36672
2018-02-27T14:23:33.921Z,36864
2018-02-27T14:24:44.291Z,35552
2018-02-27T14:25:54.729Z,36096
2018-02-27T14:27:06.332Z,37440
2018-02-27T14:28:16.529Z,36512
2018-02-27T14:29:26.778Z,34848
2018-02-27T14:30:37.580Z,31552
2018-02-27T14:31:47.296Z,31008
2018-02-27T14:32:57.488Z,36288
2018-02-27T14:34:08.099Z,35296
2018-02-27T14:35:19.465Z,31872
2018-02-27T14:36:31.355Z,31712
2018-02-27T14:37:42.597Z,32768
2018-02-27T14:38:53.503Z,32160
2018-02-27T14:40:04.452Z,25600
2018-02-27T14:41:16.282Z,24384
2018-02-27T14:42:27.082Z,30464
2018-02-27T14:43:38.274Z,32352
2018-02-27T14:44:48.736Z,33600
2018-02-27T14:46:00.029Z,31232
2018-02-27T14:47:10.211Z,24864
2018-02-27T14:48:20.723Z,23520
2018-02-27T14:49:31.349Z,19296
2018-02-27T14:50:41.099Z,10660
2018-02-27T14:51:52.093Z,16960
2018-02-27T14:53:02.473Z,27776
2018-02-27T14:54:12.860Z,8032
2018-02-27T14:55:23.490Z,7804
2018-02-27T14:56:33.659Z,7796
2018-02-27T14:57:44.241Z,8060
2018-02-27T14:58:54.875Z,9780
2018-02-27T15:00:04.764Z,8668
2018-02-27T15:01:16.461Z,7448
2018-02-27T15:02:27.021Z,7396
2018-02-27T15:03:38.049Z,7524
2018-02-27T15:04:48.601Z,7104
2018-02-27T15:05:59.620Z,6740
2018-02-27T15:07:10.401Z,6312
2018-02-27T15:08:20.971Z,5896
2018-02-27T15:09:31.944Z,5620
2018-02-27T15:10:42.803Z,5424
2018-02-27T15:11:53.848Z,5212
2018-02-27T15:13:04.149Z,4972
2018-02-27T15:14:15.175Z,4772
2018-02-27T15:15:26.028Z,4544
2018-02-27T15:16:36.906Z,4340
2018-02-27T15:17:47.531Z,4152
2018-02-27T15:19:00.043Z,4008
2018-02-27T15:20:13.323Z,3648
2018-02-27T15:21:24.059Z,3224
2018-02-27T15:22:35.461Z,2936
2018-02-27T15:23:49.523Z,2768
2018-02-27T15:25:00.583Z,2644
2018-02-27T15:26:11.698Z,2648
2018-02-27T15:27:22.282Z,2744
2018-02-27T15:28:33.235Z,2960
2018-02-27T15:29:45.353Z,3400
2018-02-27T15:30:57.571Z,3556
2018-02-27T15:32:09.161Z,3492
2018-02-27T15:33:20.932Z,3288
2018-02-27T15:34:33.385Z,3208
2018-02-27T15:35:45.614Z,3236
2018-02-27T15:36:56.542Z,3336
2018-02-27T15:38:09.671Z,3508
2018-02-27T15:39:21.300Z,3688
2018-02-27T15:40:31.659Z,3656
2018-02-27T15:41:43.240Z,3704
2018-02-27T15:42:54.420Z,3780
2018-02-27T15:44:04.839Z,3832
2018-02-27T15:45:17.663Z,3740
2018-02-27T15:46:28.716Z,3512
2018-02-27T15:47:40.295Z,3272
2018-02-27T15:48:52.627Z,3056
2018-02-27T15:50:03.553Z,2956
2018-02-27T15:51:14.689Z,2912
2018-02-27T15:52:27.176Z,2956
2018-02-27T15:53:39.406Z,3020
2018-02-27T15:54:51.511Z,2980
2018-02-27T15:56:08.670Z,2812
2018-02-27T15:57:19.193Z,2644
2018-02-27T15:58:31.419Z,2556
2018-02-27T15:59:43.223Z,2468
2018-02-27T16:00:53.676Z,2388
2018-02-27T16:02:07.044Z,2288
2018-02-27T16:03:19.423Z,2212
2018-02-27T16:04:31.463Z,2144
2018-02-27T16:05:42.501Z,2080
2018-02-27T16:06:53.698Z,2000
2018-02-27T16:08:04.761Z,1880
2018-02-27T16:09:30.774Z,1720
2018-02-27T16:10:42.964Z,1608